Terminal Aerodrome Forecast
Issued by NWS Grand Rapids, MI

Home | Current Version | Previous Version | Text Only | Print | Product List | Glossary On
Versions: 1 2 3 4 5 6 7 8 9 10 11 12 13 14 15 16 17 18
000
FTUS43 KGRR 250303 AAC
TAFGRR
TAF AMD
KGRR 250303Z 2503/2524 04009KT P6SM VCSH OVC025
      TEMPO 2504/2505 2SM RA BR OVC009
     FM250500 01009KT 3SM BR VCSH OVC009
     FM251200 36012KT P6SM VCSH OVC015
     FM252000 34010G20KT P6SM VCTS BKN035CB=

USA.gov is the U.S. government's official web portal to all federal, state and local government web resources and services.